Time,TemperatureF,DewpointF,PressureIn,WindDirection,WindDirectionDegrees,WindSpeedMPH,WindSpeedGustMPH,Humidity,HourlyPrecipIn,Conditions,Clouds,dailyrainin,SoftwareType,DateUTC
2013-02-16 00:00:00,36.0,33.9,29.97,North,0,0.0,0.0,92,0.00,,,0.00,Wunderground v.1.15,2013-02-16 05:00:00,
2013-02-16 00:01:00,36.0,33.9,29.97,North,0,0.0,0.0,92,0.00,,,0.00,Wunderground v.1.15,2013-02-16 05:01:00,
2013-02-16 00:03:00,36.0,33.9,29.97,North,0,0.0,0.0,92,0.00,,,0.00,Wunderground v.1.15,2013-02-16 05:03:00,
2013-02-16 00:07:00,36.0,34.2,29.97,North,0,0.0,1.0,93,0.00,,,0.00,Wunderground v.1.15,2013-02-16 05:07:00,
2013-02-16 00:12:00,36.2,34.4,29.97,North,0,0.0,0.0,93,0.00,,,0.00,Wunderground v.1.15,2013-02-16 05:12:00,
2013-02-16 00:17:00,36.2,34.4,29.96,North,0,0.0,1.0,93,0.00,,,0.00,Wunderground v.1.15,2013-02-16 05:17:00,
2013-02-16 00:22:00,36.2,34.4,29.96,North,0,0.0,1.0,93,0.00,,,0.00,Wunderground v.1.15,2013-02-16 05:22:00,
2013-02-16 00:24:00,36.2,34.4,29.96,North,6,0.0,2.0,93,0.00,,,0.00,Wunderground v.1.15,2013-02-16 05:24:00,
2013-02-16 00:29:00,36.2,34.4,29.97,North,6,0.0,0.0,93,0.00,,,0.00,Wunderground v.1.15,2013-02-16 05:29:00,
2013-02-16 00:34:00,36.2,34.4,29.97,North,6,0.0,0.0,93,0.00,,,0.00,Wunderground v.1.15,2013-02-16 05:34:00,
2013-02-16 00:40:00,36.2,34.4,29.97,North,6,0.0,0.0,93,0.00,,,0.00,Wunderground v.1.15,2013-02-16 05:40:00,
2013-02-16 00:45:00,36.2,34.4,29.97,North,6,0.0,0.0,93,0.00,,,0.00,Wunderground v.1.15,2013-02-16 05:45:00,
2013-02-16 00:51:00,36.2,34.6,29.97,North,6,0.0,0.0,94,0.00,,,0.00,Wunderground v.1.15,2013-02-16 05:51:00,
2013-02-16 00:57:00,36.2,34.6,29.97,North,6,0.0,0.0,94,0.00,,,0.00,Wunderground v.1.15,2013-02-16 05:57:00,
2013-02-16 01:03:00,36.0,34.4,29.96,North,6,0.0,0.0,94,0.00,,,0.00,Wunderground v.1.15,2013-02-16 06:03:00,
2013-02-16 01:08:00,36.0,34.4,29.96,North,6,0.0,0.0,94,0.00,,,0.00,Wunderground v.1.15,2013-02-16 06:08:00,
2013-02-16 01:13:00,35.9,34.3,29.96,North,6,0.0,0.0,94,0.00,,,0.00,Wunderground v.1.15,2013-02-16 06:13:00,
2013-02-16 01:18:00,35.9,34.3,29.96,North,6,0.0,0.0,94,0.00,,,0.00,Wunderground v.1.15,2013-02-16 06:18:00,
2013-02-16 01:23:00,35.9,34.3,29.96,North,6,0.0,0.0,94,0.00,,,0.00,Wunderground v.1.15,2013-02-16 06:23:00,
2013-02-16 01:28:00,35.8,34.2,29.96,North,6,0.0,0.0,94,0.00,,,0.00,Wunderground v.1.15,2013-02-16 06:28:00,
2013-02-16 01:33:00,35.8,34.2,29.96,North,6,0.0,0.0,94,0.00,,,0.00,Wunderground v.1.15,2013-02-16 06:33:00,
2013-02-16 01:39:00,35.6,34.0,29.96,North,6,0.0,0.0,94,0.00,,,0.00,Wunderground v.1.15,2013-02-16 06:39:00,
2013-02-16 01:44:00,35.6,34.0,29.96,North,6,0.0,0.0,94,0.00,,,0.00,Wunderground v.1.15,2013-02-16 06:44:00,
2013-02-16 01:49:00,35.6,34.0,29.96,North,6,0.0,0.0,94,0.00,,,0.00,Wunderground v.1.15,2013-02-16 06:49:00,
2013-02-16 01:55:00,35.6,34.0,29.96,North,6,0.0,0.0,94,0.00,,,0.00,Wunderground v.1.15,2013-02-16 06:55:00,
2013-02-16 02:00:00,35.6,34.0,29.95,North,6,0.0,0.0,94,0.00,,,0.00,Wunderground v.1.15,2013-02-16 07:00:00,
2013-02-16 02:06:00,35.6,34.0,29.95,North,6,0.0,0.0,94,0.00,,,0.00,Wunderground v.1.15,2013-02-16 07:06:00,
2013-02-16 02:11:00,35.6,34.0,29.95,North,6,0.0,0.0,94,0.00,,,0.00,Wunderground v.1.15,2013-02-16 07:11:00,
2013-02-16 02:17:00,35.6,34.0,29.95,North,6,0.0,0.0,94,0.00,,,0.00,Wunderground v.1.15,2013-02-16 07:17:00,
2013-02-16 02:22:00,35.6,34.0,29.95,North,6,0.0,0.0,94,0.00,,,0.00,Wunderground v.1.15,2013-02-16 07:22:00,
2013-02-16 02:28:00,35.6,34.0,29.95,North,6,0.0,0.0,94,0.00,,,0.00,Wunderground v.1.15,2013-02-16 07:28:00,
2013-02-16 02:33:00,35.6,34.0,29.95,North,6,0.0,0.0,94,0.00,,,0.00,Wunderground v.1.15,2013-02-16 07:33:00,
2013-02-16 02:39:00,35.6,34.0,29.95,North,6,0.0,0.0,94,0.00,,,0.00,Wunderground v.1.15,2013-02-16 07:39:00,
2013-02-16 02:44:00,35.6,34.3,29.94,North,6,0.0,0.0,95,0.00,,,0.00,Wunderground v.1.15,2013-02-16 07:44:00,
2013-02-16 02:49:00,35.8,34.5,29.94,North,6,0.0,0.0,95,0.00,,,0.00,Wunderground v.1.15,2013-02-16 07:49:00,
2013-02-16 02:54:00,35.8,34.5,29.94,North,6,0.0,0.0,95,0.00,,,0.00,Wunderground v.1.15,2013-02-16 07:54:00,
2013-02-16 02:59:00,35.8,34.5,29.94,North,6,0.0,0.0,95,0.00,,,0.00,Wunderground v.1.15,2013-02-16 07:59:00,
2013-02-16 03:05:00,35.8,34.5,29.94,North,6,0.0,0.0,95,0.00,,,0.00,Wunderground v.1.15,2013-02-16 08:05:00,
2013-02-16 03:10:00,35.8,34.5,29.94,North,6,0.0,0.0,95,0.00,,,0.00,Wunderground v.1.15,2013-02-16 08:10:00,
2013-02-16 03:15:00,35.8,34.5,29.93,North,6,0.0,0.0,95,0.00,,,0.00,Wunderground v.1.15,2013-02-16 08:15:00,
2013-02-16 03:20:00,35.8,34.5,29.93,North,6,0.0,0.0,95,0.00,,,0.00,Wunderground v.1.15,2013-02-16 08:20:00,
2013-02-16 03:25:00,35.8,34.5,29.93,North,6,0.0,0.0,95,0.00,,,0.00,Wunderground v.1.15,2013-02-16 08:25:00,
2013-02-16 03:31:00,35.8,34.5,29.93,North,6,0.0,0.0,95,0.00,,,0.00,Wunderground v.1.15,2013-02-16 08:31:00,
2013-02-16 03:36:00,35.8,34.5,29.93,North,6,0.0,0.0,95,0.00,,,0.00,Wunderground v.1.15,2013-02-16 08:36:00,
2013-02-16 03:42:00,35.8,34.5,29.93,North,6,0.0,0.0,95,0.00,,,0.00,Wunderground v.1.15,2013-02-16 08:42:00,
2013-02-16 03:48:00,35.8,34.5,29.92,North,6,0.0,0.0,95,0.00,,,0.00,Wunderground v.1.15,2013-02-16 08:48:00,
2013-02-16 03:53:00,35.8,34.5,29.92,North,6,0.0,0.0,95,0.00,,,0.00,Wunderground v.1.15,2013-02-16 08:53:00,
2013-02-16 03:58:00,35.8,34.5,29.92,North,6,0.0,0.0,95,0.00,,,0.00,Wunderground v.1.15,2013-02-16 08:58:00,
2013-02-16 04:03:00,35.8,34.5,29.92,North,6,0.0,0.0,95,0.00,,,0.00,Wunderground v.1.15,2013-02-16 09:03:00,
2013-02-16 04:08:00,35.8,34.5,29.92,North,6,0.0,0.0,95,0.00,,,0.00,Wunderground v.1.15,2013-02-16 09:08:00,
2013-02-16 04:14:00,35.9,34.6,29.92,North,6,0.0,0.0,95,0.00,,,0.00,Wunderground v.1.15,2013-02-16 09:14:00,
2013-02-16 04:19:00,35.9,34.6,29.92,North,6,0.0,1.0,95,0.00,,,0.00,Wunderground v.1.15,2013-02-16 09:19:00,
2013-02-16 04:24:00,35.9,34.6,29.92,North,6,0.0,1.0,95,0.00,,,0.00,Wunderground v.1.15,2013-02-16 09:24:00,
2013-02-16 04:29:00,36.0,34.7,29.92,North,6,0.0,0.0,95,0.00,,,0.00,Wunderground v.1.15,2013-02-16 09:29:00,
2013-02-16 04:34:00,36.0,35.0,29.92,North,6,0.0,0.0,96,0.00,,,0.00,Wunderground v.1.15,2013-02-16 09:34:00,
2013-02-16 04:39:00,36.0,35.0,29.92,North,6,0.0,0.0,96,0.00,,,0.00,Wunderground v.1.15,2013-02-16 09:39:00,
2013-02-16 04:44:00,36.0,35.0,29.92,North,6,0.0,0.0,96,0.00,,,0.00,Wunderground v.1.15,2013-02-16 09:44:00,
2013-02-16 04:49:00,36.0,35.0,29.92,North,6,0.0,0.0,96,0.00,,,0.00,Wunderground v.1.15,2013-02-16 09:49:00,
2013-02-16 04:55:00,36.0,35.0,29.92,North,6,0.0,0.0,96,0.00,,,0.00,Wunderground v.1.15,2013-02-16 09:55:00,
2013-02-16 05:00:00,35.9,34.9,29.92,North,6,0.0,0.0,96,0.00,,,0.00,Wunderground v.1.15,2013-02-16 10:00:00,
2013-02-16 05:05:00,35.9,34.9,29.92,North,6,0.0,0.0,96,0.00,,,0.00,Wunderground v.1.15,2013-02-16 10:05:00,
2013-02-16 05:10:00,35.8,34.8,29.92,North,6,0.0,0.0,96,0.00,,,0.00,Wunderground v.1.15,2013-02-16 10:10:00,
2013-02-16 05:15:00,35.8,34.8,29.92,North,6,0.0,0.0,96,0.00,,,0.00,Wunderground v.1.15,2013-02-16 10:15:00,
2013-02-16 05:20:00,35.6,34.6,29.92,North,6,0.0,0.0,96,0.00,,,0.00,Wunderground v.1.15,2013-02-16 10:20:00,
2013-02-16 05:26:00,35.6,34.6,29.92,North,6,0.0,0.0,96,0.00,,,0.00,Wunderground v.1.15,2013-02-16 10:26:00,
2013-02-16 05:32:00,35.5,34.5,29.92,NW,308,0.0,1.0,96,0.00,,,0.00,Wunderground v.1.15,2013-02-16 10:32:00,
2013-02-16 05:37:00,35.5,34.5,29.92,NW,308,0.0,1.0,96,0.00,,,0.00,Wunderground v.1.15,2013-02-16 10:37:00,
2013-02-16 05:42:00,35.5,34.5,29.92,NW,308,0.0,0.0,96,0.00,,,0.00,Wunderground v.1.15,2013-02-16 10:42:00,
2013-02-16 05:47:00,35.5,34.5,29.92,NW,308,0.0,0.0,96,0.00,,,0.00,Wunderground v.1.15,2013-02-16 10:47:00,
2013-02-16 05:52:00,35.3,34.3,29.92,NW,308,0.0,0.0,96,0.00,,,0.00,Wunderground v.1.15,2013-02-16 10:52:00,
2013-02-16 05:57:00,35.3,34.3,29.92,NW,308,0.0,0.0,96,0.00,,,0.00,Wunderground v.1.15,2013-02-16 10:57:00,
2013-02-16 06:02:00,35.5,34.5,29.93,NW,308,0.0,0.0,96,0.00,,,0.00,Wunderground v.1.15,2013-02-16 11:02:00,
2013-02-16 06:07:00,35.5,34.5,29.93,NW,308,0.0,1.0,96,0.00,,,0.00,Wunderground v.1.15,2013-02-16 11:07:00,
2013-02-16 06:12:00,35.5,34.5,29.93,NW,308,0.0,0.0,96,0.00,,,0.00,Wunderground v.1.15,2013-02-16 11:12:00,
2013-02-16 06:18:00,35.5,34.5,29.93,NW,308,0.0,0.0,96,0.00,,,0.00,Wunderground v.1.15,2013-02-16 11:18:00,
2013-02-16 06:23:00,35.5,34.5,29.93,NW,308,0.0,1.0,96,0.00,,,0.00,Wunderground v.1.15,2013-02-16 11:23:00,
2013-02-16 06:28:00,35.6,34.6,29.93,NW,308,0.0,1.0,96,0.00,,,0.00,Wunderground v.1.15,2013-02-16 11:28:00,
2013-02-16 06:33:00,35.6,34.6,29.93,NW,308,0.0,2.0,96,0.00,,,0.00,Wunderground v.1.15,2013-02-16 11:33:00,
2013-02-16 06:39:00,35.8,34.8,29.93,NW,308,0.0,2.0,96,0.00,,,0.00,Wunderground v.1.15,2013-02-16 11:39:00,
2013-02-16 06:44:00,35.8,34.8,29.93,NW,308,1.0,1.0,96,0.00,,,0.00,Wunderground v.1.15,2013-02-16 11:44:00,
2013-02-16 06:49:00,35.8,34.8,29.93,NW,308,1.0,1.0,96,0.00,,,0.00,Wunderground v.1.15,2013-02-16 11:49:00,
2013-02-16 06:55:00,35.6,34.6,29.93,NW,308,1.0,2.0,96,0.00,,,0.00,Wunderground v.1.15,2013-02-16 11:55:00,
2013-02-16 07:00:00,35.5,34.5,29.92,North,0,1.0,1.0,96,0.00,,,0.00,Wunderground v.1.15,2013-02-16 12:00:00,
2013-02-16 07:05:00,35.5,34.5,29.92,North,0,0.0,1.0,96,0.00,,,0.00,Wunderground v.1.15,2013-02-16 12:05:00,
2013-02-16 07:11:00,35.3,34.3,29.92,North,0,0.0,2.0,96,0.00,,,0.00,Wunderground v.1.15,2013-02-16 12:11:00,
2013-02-16 07:16:00,35.3,34.3,29.93,North,0,0.0,2.0,96,0.00,,,0.00,Wunderground v.1.15,2013-02-16 12:16:00,
2013-02-16 07:21:00,35.2,34.2,29.93,North,0,0.0,1.0,96,0.00,,,0.00,Wunderground v.1.15,2013-02-16 12:21:00,
2013-02-16 07:27:00,35.2,34.2,29.93,North,0,0.0,1.0,96,0.00,,,0.00,Wunderground v.1.15,2013-02-16 12:27:00,
2013-02-16 07:32:00,35.0,34.0,29.93,North,0,0.0,0.0,96,0.00,,,0.00,Wunderground v.1.15,2013-02-16 12:32:00,
2013-02-16 07:37:00,35.0,34.0,29.93,North,0,0.0,4.0,96,0.00,,,0.00,Wunderground v.1.15,2013-02-16 12:37:00,
2013-02-16 07:42:00,35.0,34.0,29.93,North,0,0.0,2.0,96,0.00,,,0.00,Wunderground v.1.15,2013-02-16 12:42:00,
2013-02-16 07:48:00,35.0,34.0,29.93,North,0,0.0,2.0,96,0.00,,,0.00,Wunderground v.1.15,2013-02-16 12:48:00,
2013-02-16 07:54:00,35.0,34.0,29.93,North,0,1.0,2.0,96,0.00,,,0.00,Wunderground v.1.15,2013-02-16 12:54:00,
2013-02-16 08:01:00,34.9,33.9,29.93,North,0,2.0,2.0,96,0.00,,,0.00,Wunderground v.1.15,2013-02-16 13:01:00,
2013-02-16 08:06:00,34.9,33.9,29.93,North,349,2.0,2.0,96,0.00,,,0.00,Wunderground v.1.15,2013-02-16 13:06:00,
2013-02-16 08:12:00,34.9,33.9,29.93,North,353,1.0,1.0,96,0.00,,,0.00,Wunderground v.1.15,2013-02-16 13:12:00,
2013-02-16 08:17:00,34.9,33.9,29.93,North,10,2.0,6.0,96,0.00,,,0.00,Wunderground v.1.15,2013-02-16 13:17:00,
2013-02-16 08:22:00,34.9,33.9,29.93,North,0,2.0,2.0,96,0.00,,,0.00,Wunderground v.1.15,2013-02-16 13:22:00,
2013-02-16 08:28:00,34.9,33.9,29.93,NNW,329,2.0,6.0,96,0.00,,,0.00,Wunderground v.1.15,2013-02-16 13:28:00,
2013-02-16 08:33:00,34.9,33.9,29.93,NNE,20,2.0,4.0,96,0.00,,,0.00,Wunderground v.1.15,2013-02-16 13:33:00,
2013-02-16 08:38:00,34.9,33.9,29.93,NNW,342,2.0,6.0,96,0.00,,,0.00,Wunderground v.1.15,2013-02-16 13:38:00,
2013-02-16 08:43:00,35.0,34.0,29.93,North,6,2.0,2.0,96,0.00,,,0.00,Wunderground v.1.15,2013-02-16 13:43:00,
2013-02-16 08:48:00,35.0,34.0,29.92,North,0,3.0,6.0,96,0.00,,,0.00,Wunderground v.1.15,2013-02-16 13:48:00,
2013-02-16 08:54:00,35.0,34.0,29.92,North,0,3.0,6.0,96,0.00,,,0.00,Wunderground v.1.15,2013-02-16 13:54:00,
2013-02-16 08:59:00,35.0,34.0,29.92,NNE,13,2.0,4.0,96,0.00,,,0.00,Wunderground v.1.15,2013-02-16 13:59:00,
2013-02-16 09:05:00,35.2,34.2,29.92,NNE,24,3.0,6.0,96,0.00,,,0.00,Wunderground v.1.15,2013-02-16 14:05:00,
2013-02-16 09:11:00,35.3,34.3,29.92,NNW,329,4.0,7.0,96,0.00,,,0.00,Wunderground v.1.15,2013-02-16 14:11:00,
2013-02-16 09:16:00,35.5,34.5,29.92,ENE,75,6.0,8.0,96,0.00,,,0.00,Wunderground v.1.15,2013-02-16 14:16:00,
2013-02-16 09:21:00,35.8,34.8,29.92,North,0,7.0,10.0,96,0.00,,,0.00,Wunderground v.1.15,2013-02-16 14:21:00,
2013-02-16 09:26:00,35.9,34.9,29.92,NNE,23,7.0,10.0,96,0.00,,,0.00,Wunderground v.1.15,2013-02-16 14:26:00,
2013-02-16 09:32:00,36.0,35.0,29.91,North,0,7.0,8.0,96,0.00,,,0.00,Wunderground v.1.15,2013-02-16 14:32:00,
2013-02-16 09:37:00,36.0,34.7,29.91,North,0,6.0,9.0,95,0.00,,,0.00,Wunderground v.1.15,2013-02-16 14:37:00,
2013-02-16 09:43:00,36.2,34.6,29.91,NNE,13,6.0,6.0,94,0.00,,,0.00,Wunderground v.1.15,2013-02-16 14:43:00,
2013-02-16 09:48:00,36.3,34.2,29.91,NNE,13,6.0,7.0,92,0.00,,,0.00,Wunderground v.1.15,2013-02-16 14:48:00,
2013-02-16 09:53:00,36.6,33.7,29.91,North,0,5.0,9.0,89,0.00,,,0.00,Wunderground v.1.15,2013-02-16 14:53:00,
2013-02-16 09:59:00,36.9,33.1,29.91,North,0,6.0,9.0,86,0.00,,,0.00,Wunderground v.1.15,2013-02-16 14:59:00,
2013-02-16 10:04:00,36.9,32.8,29.91,NNE,27,7.0,10.0,85,0.00,,,0.00,Wunderground v.1.15,2013-02-16 15:04:00,
2013-02-16 10:10:00,36.9,32.2,29.91,NE,51,6.0,6.0,83,0.00,,,0.00,Wunderground v.1.15,2013-02-16 15:10:00,
2013-02-16 10:16:00,37.0,32.0,29.91,North,6,6.0,8.0,82,0.00,,,0.00,Wunderground v.1.15,2013-02-16 15:16:00,
2013-02-16 10:21:00,37.0,32.0,29.91,North,349,6.0,6.0,82,0.00,,,0.00,Wunderground v.1.15,2013-02-16 15:21:00,
2013-02-16 10:26:00,37.0,31.7,29.91,North,353,7.0,9.0,81,0.00,,,0.00,Wunderground v.1.15,2013-02-16 15:26:00,
2013-02-16 10:32:00,37.2,31.6,29.91,NNE,31,7.0,7.0,80,0.00,,,0.00,Wunderground v.1.15,2013-02-16 15:32:00,
2013-02-16 10:37:00,37.5,31.9,29.91,NNE,31,6.0,9.0,80,0.00,,,0.00,Wunderground v.1.15,2013-02-16 15:37:00,
2013-02-16 10:43:00,37.6,31.7,29.91,North,6,5.0,8.0,79,0.00,,,0.00,Wunderground v.1.15,2013-02-16 15:43:00,
2013-02-16 10:48:00,37.8,32.2,29.91,North,0,5.0,9.0,80,0.00,,,0.00,Wunderground v.1.15,2013-02-16 15:48:00,
2013-02-16 10:54:00,37.9,32.0,29.91,North,0,4.0,11.0,79,0.00,,,0.00,Wunderground v.1.15,2013-02-16 15:54:00,
2013-02-16 10:59:00,37.8,31.9,29.91,North,6,5.0,11.0,79,0.00,,,0.00,Wunderground v.1.15,2013-02-16 15:59:00,
2013-02-16 11:04:00,37.8,31.6,29.91,North,0,5.0,10.0,78,0.00,,,0.00,Wunderground v.1.15,2013-02-16 16:04:00,
2013-02-16 11:09:00,37.9,31.7,29.91,North,0,5.0,10.0,78,0.00,,,0.00,Wunderground v.1.15,2013-02-16 16:09:00,
2013-02-16 11:14:00,37.9,31.7,29.91,North,3,4.0,7.0,78,0.00,,,0.00,Wunderground v.1.15,2013-02-16 16:14:00,
2013-02-16 11:19:00,37.9,31.3,29.91,NNE,24,5.0,7.0,77,0.00,,,0.00,Wunderground v.1.15,2013-02-16 16:19:00,
2013-02-16 11:24:00,37.9,31.3,29.91,North,0,5.0,6.0,77,0.00,,,0.00,Wunderground v.1.15,2013-02-16 16:24:00,
2013-02-16 11:31:00,38.0,31.1,29.90,NNE,16,5.0,9.0,76,0.00,,,0.00,Wunderground v.1.15,2013-02-16 16:31:00,
2013-02-16 11:36:00,38.2,31.6,29.90,North,0,5.0,9.0,77,0.00,,,0.00,Wunderground v.1.15,2013-02-16 16:36:00,
2013-02-16 11:42:00,38.5,31.3,29.90,NNW,342,3.0,3.0,75,0.00,,,0.00,Wunderground v.1.15,2013-02-16 16:42:00,
2013-02-16 11:47:00,38.5,31.3,29.89,North,6,3.0,10.0,75,0.00,,,0.00,Wunderground v.1.15,2013-02-16 16:47:00,
2013-02-16 11:52:00,38.2,31.0,29.89,North,0,5.0,8.0,75,0.00,,,0.00,Wunderground v.1.15,2013-02-16 16:52:00,
2013-02-16 11:58:00,38.3,31.1,29.89,NNW,329,5.0,8.0,75,0.00,,,0.00,Wunderground v.1.15,2013-02-16 16:58:00,
2013-02-16 12:03:00,38.3,30.7,29.88,North,0,4.0,9.0,74,0.00,,,0.00,Wunderground v.1.15,2013-02-16 17:03:00,
2013-02-16 12:08:00,38.3,30.7,29.88,North,6,5.0,10.0,74,0.00,,,0.00,Wunderground v.1.15,2013-02-16 17:08:00,
2013-02-16 12:13:00,38.3,30.7,29.88,North,6,6.0,10.0,74,0.00,,,0.00,Wunderground v.1.15,2013-02-16 17:13:00,
2013-02-16 12:18:00,38.3,30.7,29.87,North,6,5.0,10.0,74,0.00,,,0.00,Wunderground v.1.15,2013-02-16 17:18:00,
2013-02-16 12:23:00,38.3,30.4,29.87,North,349,3.0,6.0,73,0.00,,,0.00,Wunderground v.1.15,2013-02-16 17:23:00,
2013-02-16 12:28:00,38.3,30.7,29.87,North,0,3.0,6.0,74,0.00,,,0.00,Wunderground v.1.15,2013-02-16 17:28:00,
2013-02-16 12:33:00,38.3,30.4,29.87,North,0,4.0,7.0,73,0.00,,,0.00,Wunderground v.1.15,2013-02-16 17:33:00,
2013-02-16 12:38:00,38.2,30.3,29.87,North,0,4.0,8.0,73,0.00,,,0.00,Wunderground v.1.15,2013-02-16 17:38:00,
2013-02-16 12:44:00,38.2,30.3,29.87,North,357,3.0,4.0,73,0.00,,,0.00,Wunderground v.1.15,2013-02-16 17:44:00,
2013-02-16 12:49:00,37.9,30.0,29.86,NNW,344,4.0,15.0,73,0.00,,,0.00,Wunderground v.1.15,2013-02-16 17:49:00,
2013-02-16 12:55:00,37.8,29.9,29.86,NW,316,5.0,7.0,73,0.00,,,0.00,Wunderground v.1.15,2013-02-16 17:55:00,
2013-02-16 13:01:00,37.6,29.7,29.86,North,354,5.0,5.0,73,0.00,,,0.00,Wunderground v.1.15,2013-02-16 18:01:00,
2013-02-16 13:07:00,37.6,29.4,29.86,NE,37,5.0,7.0,72,0.00,,,0.00,Wunderground v.1.15,2013-02-16 18:07:00,
2013-02-16 13:12:00,37.8,29.2,29.86,NNW,330,5.0,6.0,71,0.00,,,0.00,Wunderground v.1.15,2013-02-16 18:12:00,
2013-02-16 13:17:00,37.8,28.9,29.87,NNW,340,4.0,8.0,70,0.00,,,0.00,Wunderground v.1.15,2013-02-16 18:17:00,
2013-02-16 13:22:00,37.8,28.9,29.87,North,6,4.0,9.0,70,0.00,,,0.00,Wunderground v.1.15,2013-02-16 18:22:00,
2013-02-16 13:28:00,37.8,28.9,29.87,NNE,17,5.0,9.0,70,0.00,,,0.00,Wunderground v.1.15,2013-02-16 18:28:00,
2013-02-16 13:33:00,37.8,28.5,29.87,NNE,13,5.0,5.0,69,0.00,,,0.00,Wunderground v.1.15,2013-02-16 18:33:00,
2013-02-16 13:39:00,37.9,29.0,29.87,North,0,4.0,8.0,70,0.00,,,0.00,Wunderground v.1.15,2013-02-16 18:39:00,
2013-02-16 13:44:00,37.9,28.6,29.85,NW,326,5.0,7.0,69,0.00,,,0.00,Wunderground v.1.15,2013-02-16 18:44:00,
2013-02-16 13:49:00,37.9,28.3,29.85,North,0,3.0,7.0,68,0.00,,,0.00,Wunderground v.1.15,2013-02-16 18:49:00,
2013-02-16 13:55:00,38.0,28.4,29.85,NNW,329,2.0,7.0,68,0.00,,,0.00,Wunderground v.1.15,2013-02-16 18:55:00,
2013-02-16 14:00:00,38.2,28.6,29.85,NNE,13,3.0,4.0,68,0.00,,,0.00,Wunderground v.1.15,2013-02-16 19:00:00,
2013-02-16 14:06:00,38.0,28.4,29.85,North,0,4.0,9.0,68,0.00,,,0.00,Wunderground v.1.15,2013-02-16 19:06:00,
2013-02-16 14:11:00,37.8,27.8,29.85,North,6,6.0,8.0,67,0.00,,,0.00,Wunderground v.1.15,2013-02-16 19:11:00,
2013-02-16 14:17:00,37.8,28.2,29.84,North,0,6.0,8.0,68,0.00,,,0.00,Wunderground v.1.15,2013-02-16 19:17:00,
2013-02-16 14:22:00,37.8,28.2,29.84,North,3,4.0,9.0,68,0.00,,,0.00,Wunderground v.1.15,2013-02-16 19:22:00,
2013-02-16 14:27:00,37.8,28.2,29.84,North,6,5.0,9.0,68,0.00,,,0.00,Wunderground v.1.15,2013-02-16 19:27:00,
2013-02-16 14:33:00,37.8,27.8,29.84,NNE,13,5.0,7.0,67,0.00,,,0.00,Wunderground v.1.15,2013-02-16 19:33:00,
2013-02-16 14:38:00,37.6,27.6,29.84,NNE,20,5.0,9.0,67,0.00,,,0.00,Wunderground v.1.15,2013-02-16 19:38:00,
2013-02-16 14:43:00,37.5,27.5,29.84,NE,48,5.0,7.0,67,0.00,,,0.00,Wunderground v.1.15,2013-02-16 19:43:00,
2013-02-16 14:48:00,37.3,27.7,29.84,NE,48,4.0,7.0,68,0.00,,,0.00,Wunderground v.1.15,2013-02-16 19:48:00,
2013-02-16 14:53:00,37.3,28.1,29.84,NE,55,3.0,4.0,69,0.00,,,0.00,Wunderground v.1.15,2013-02-16 19:53:00,
2013-02-16 14:59:00,37.3,28.1,29.84,NE,34,4.0,7.0,69,0.00,,,0.00,Wunderground v.1.15,2013-02-16 19:59:00,
2013-02-16 15:04:00,37.2,28.3,29.83,NNW,330,4.0,7.0,70,0.00,,,0.00,Wunderground v.1.15,2013-02-16 20:04:00,
2013-02-16 15:10:00,37.2,28.3,29.83,North,0,2.0,4.0,70,0.00,,,0.00,Wunderground v.1.15,2013-02-16 20:10:00,
2013-02-16 15:16:00,37.3,28.1,29.82,NW,320,2.0,7.0,69,0.00,,,0.00,Wunderground v.1.15,2013-02-16 20:16:00,
2013-02-16 15:21:00,37.3,28.1,29.82,North,0,3.0,3.0,69,0.00,,,0.00,Wunderground v.1.15,2013-02-16 20:21:00,
2013-02-16 15:27:00,37.3,28.1,29.82,NNE,20,3.0,8.0,69,0.00,,,0.00,Wunderground v.1.15,2013-02-16 20:27:00,
2013-02-16 15:33:00,37.5,28.6,29.82,North,350,5.0,8.0,70,0.00,,,0.00,Wunderground v.1.15,2013-02-16 20:33:00,
2013-02-16 15:39:00,37.5,28.2,29.82,North,0,6.0,13.0,69,0.00,,,0.00,Wunderground v.1.15,2013-02-16 20:39:00,
2013-02-16 15:45:00,37.5,28.2,29.83,NNE,27,5.0,7.0,69,0.00,,,0.00,Wunderground v.1.15,2013-02-16 20:45:00,
2013-02-16 15:52:00,37.3,28.4,29.83,NNE,24,7.0,8.0,70,0.00,,,0.00,Wunderground v.1.15,2013-02-16 20:52:00,
2013-02-16 15:57:00,37.2,28.3,29.83,NNE,13,6.0,8.0,70,0.00,,,0.00,Wunderground v.1.15,2013-02-16 20:57:00,
2013-02-16 16:02:00,36.9,28.0,29.83,North,0,6.0,9.0,70,0.00,,,0.00,Wunderground v.1.15,2013-02-16 21:02:00,
2013-02-16 16:08:00,36.8,28.3,29.83,NNE,31,7.0,9.0,71,0.00,,,0.00,Wunderground v.1.15,2013-02-16 21:08:00,
2013-02-16 16:13:00,36.6,28.4,29.83,North,0,5.0,5.0,72,0.00,,,0.00,Wunderground v.1.15,2013-02-16 21:13:00,
2013-02-16 16:18:00,36.5,28.3,29.84,NNE,17,4.0,8.0,72,0.00,,,0.00,Wunderground v.1.15,2013-02-16 21:18:00,
2013-02-16 16:23:00,36.5,28.7,29.84,North,6,5.0,7.0,73,0.00,,,0.00,Wunderground v.1.15,2013-02-16 21:23:00,
2013-02-16 16:28:00,36.3,28.8,29.84,North,6,5.0,7.0,74,0.00,,,0.00,Wunderground v.1.15,2013-02-16 21:28:00,
2013-02-16 16:34:00,36.2,28.7,29.83,North,6,3.0,4.0,74,0.00,,,0.00,Wunderground v.1.15,2013-02-16 21:34:00,
2013-02-16 16:40:00,36.0,28.5,29.83,North,6,4.0,7.0,74,0.00,,,0.00,Wunderground v.1.15,2013-02-16 21:40:00,
2013-02-16 16:45:00,36.0,28.5,29.84,NNW,329,5.0,9.0,74,0.00,,,0.00,Wunderground v.1.15,2013-02-16 21:45:00,
2013-02-16 16:53:00,35.8,29.0,29.84,North,3,3.0,3.0,76,0.00,,,0.00,Wunderground v.1.15,2013-02-16 21:53:00,
2013-02-16 16:58:00,35.6,29.1,29.84,North,0,1.0,1.0,77,0.00,,,0.00,Wunderground v.1.15,2013-02-16 21:58:00,
2013-02-16 17:03:00,35.5,29.3,29.83,North,0,1.0,2.0,78,0.00,,,0.00,Wunderground v.1.15,2013-02-16 22:03:00,
2013-02-16 17:08:00,35.2,29.0,29.83,North,0,1.0,4.0,78,0.00,,,0.00,Wunderground v.1.15,2013-02-16 22:08:00,
2013-02-16 17:14:00,35.0,29.1,29.83,NNE,13,2.0,2.0,79,0.00,,,0.00,Wunderground v.1.15,2013-02-16 22:14:00,
2013-02-16 17:19:00,34.9,29.0,29.83,NNE,16,1.0,2.0,79,0.00,,,0.00,Wunderground v.1.15,2013-02-16 22:19:00,
2013-02-16 17:24:00,34.9,29.4,29.83,North,6,0.0,2.0,80,0.00,,,0.00,Wunderground v.1.15,2013-02-16 22:24:00,
2013-02-16 17:30:00,34.7,29.2,29.83,North,10,0.0,4.0,80,0.00,,,0.00,Wunderground v.1.15,2013-02-16 22:30:00,
2013-02-16 17:38:00,34.7,29.5,29.83,NE,48,1.0,1.0,81,0.00,,,0.00,Wunderground v.1.15,2013-02-16 22:38:00,
2013-02-16 17:44:00,34.6,29.7,29.83,North,6,2.0,7.0,82,0.00,,,0.00,Wunderground v.1.15,2013-02-16 22:44:00,
2013-02-16 17:49:00,34.4,29.2,29.83,North,0,2.0,2.0,81,0.00,,,0.00,Wunderground v.1.15,2013-02-16 22:49:00,
2013-02-16 17:54:00,34.4,28.9,29.83,NNE,13,2.0,2.0,80,0.00,,,0.00,Wunderground v.1.15,2013-02-16 22:54:00,
2013-02-16 17:59:00,34.4,28.6,29.83,NNW,336,1.0,4.0,79,0.00,,,0.00,Wunderground v.1.15,2013-02-16 22:59:00,
2013-02-16 18:05:00,34.3,27.5,29.83,North,0,3.0,7.0,76,0.00,,,0.00,Wunderground v.1.15,2013-02-16 23:05:00,
2013-02-16 18:10:00,34.4,27.0,29.83,NNW,329,4.0,4.0,74,0.00,,,0.00,Wunderground v.1.15,2013-02-16 23:10:00,
2013-02-16 18:17:00,34.4,26.0,29.83,North,0,3.0,7.0,71,0.00,,,0.00,Wunderground v.1.15,2013-02-16 23:17:00,
2013-02-16 18:22:00,34.4,24.9,29.83,NW,318,5.0,9.0,68,0.00,,,0.00,Wunderground v.1.15,2013-02-16 23:22:00,
2013-02-16 18:27:00,34.6,24.4,29.83,NNW,344,6.0,9.0,66,0.00,,,0.00,Wunderground v.1.15,2013-02-16 23:27:00,
2013-02-16 18:32:00,34.6,24.4,29.83,North,6,4.0,5.0,66,0.00,,,0.00,Wunderground v.1.15,2013-02-16 23:32:00,
2013-02-16 18:37:00,34.6,24.0,29.83,NNW,339,4.0,6.0,65,0.00,,,0.00,Wunderground v.1.15,2013-02-16 23:37:00,
2013-02-16 18:42:00,34.6,24.0,29.83,North,10,4.0,7.0,65,0.00,,,0.00,Wunderground v.1.15,2013-02-16 23:42:00,
2013-02-16 18:47:00,34.6,23.7,29.83,NW,318,3.0,7.0,64,0.00,,,0.00,Wunderground v.1.15,2013-02-16 23:47:00,
2013-02-16 18:52:00,34.6,23.3,29.83,North,0,4.0,8.0,63,0.00,,,0.00,Wunderground v.1.15,2013-02-16 23:52:00,
2013-02-16 18:57:00,34.4,22.3,29.83,North,349,5.0,8.0,61,0.00,,,0.00,Wunderground v.1.15,2013-02-16 23:57:00,
2013-02-16 19:03:00,34.4,21.5,29.83,NNW,330,4.0,4.0,59,0.00,,,0.00,Wunderground v.1.15,2013-02-17 00:03:00,
2013-02-16 19:08:00,34.4,20.7,29.83,North,349,3.0,3.0,57,0.00,,,0.00,Wunderground v.1.15,2013-02-17 00:08:00,
2013-02-16 19:13:00,34.3,20.2,29.83,North,0,4.0,4.0,56,0.00,,,0.00,Wunderground v.1.15,2013-02-17 00:13:00,
2013-02-16 19:18:00,34.3,20.2,29.84,NNW,347,5.0,6.0,56,0.00,,,0.00,Wunderground v.1.15,2013-02-17 00:18:00,
2013-02-16 19:24:00,34.3,20.2,29.84,NNW,335,3.0,7.0,56,0.00,,,0.00,Wunderground v.1.15,2013-02-17 00:24:00,
2013-02-16 19:29:00,34.1,20.0,29.84,NNW,330,3.0,10.0,56,0.00,,,0.00,Wunderground v.1.15,2013-02-17 00:29:00,
2013-02-16 19:34:00,34.1,19.6,29.84,NNW,340,4.0,10.0,55,0.00,,,0.00,Wunderground v.1.15,2013-02-17 00:34:00,
2013-02-16 19:40:00,34.0,19.1,29.84,North,0,4.0,4.0,54,0.00,,,0.00,Wunderground v.1.15,2013-02-17 00:40:00,
2013-02-16 19:46:00,34.0,19.1,29.84,North,3,3.0,7.0,54,0.00,,,0.00,Wunderground v.1.15,2013-02-17 00:46:00,
2013-02-16 19:53:00,33.8,18.9,29.84,North,0,4.0,4.0,54,0.00,,,0.00,Wunderground v.1.15,2013-02-17 00:53:00,
2013-02-16 19:59:00,33.8,18.5,29.84,NNW,347,4.0,8.0,53,0.00,,,0.00,Wunderground v.1.15,2013-02-17 00:59:00,
2013-02-16 20:04:00,33.8,18.9,29.83,North,354,4.0,4.0,54,0.00,,,0.00,Wunderground v.1.15,2013-02-17 01:04:00,
2013-02-16 20:09:00,33.7,18.8,29.83,North,0,3.0,4.0,54,0.00,,,0.00,Wunderground v.1.15,2013-02-17 01:09:00,
2013-02-16 20:14:00,33.7,18.4,29.83,NNW,343,4.0,10.0,53,0.00,,,0.00,Wunderground v.1.15,2013-02-17 01:14:00,
2013-02-16 20:19:00,33.7,18.8,29.83,North,0,4.0,4.0,54,0.00,,,0.00,Wunderground v.1.15,2013-02-17 01:19:00,
2013-02-16 20:24:00,33.5,18.2,29.83,North,6,4.0,8.0,53,0.00,,,0.00,Wunderground v.1.15,2013-02-17 01:24:00,
2013-02-16 20:29:00,33.5,18.2,29.83,NW,311,5.0,5.0,53,0.00,,,0.00,Wunderground v.1.15,2013-02-17 01:29:00,
2013-02-16 20:36:00,33.5,18.2,29.83,NNW,347,3.0,7.0,53,0.00,,,0.00,Wunderground v.1.15,2013-02-17 01:36:00,
2013-02-16 20:41:00,33.4,18.1,29.83,NW,320,2.0,2.0,53,0.00,,,0.00,Wunderground v.1.15,2013-02-17 01:41:00,
2013-02-16 20:47:00,33.4,18.1,29.82,NNW,347,2.0,6.0,53,0.00,,,0.00,Wunderground v.1.15,2013-02-17 01:47:00,
2013-02-16 20:52:00,33.4,18.1,29.82,NNW,336,3.0,7.0,53,0.00,,,0.00,Wunderground v.1.15,2013-02-17 01:52:00,
2013-02-16 20:58:00,33.2,17.9,29.82,NNW,347,3.0,8.0,53,0.00,,,0.00,Wunderground v.1.15,2013-02-17 01:58:00,
2013-02-16 21:03:00,33.2,17.9,29.82,NNW,336,3.0,4.0,53,0.00,,,0.00,Wunderground v.1.15,2013-02-17 02:03:00,
2013-02-16 21:08:00,33.2,17.9,29.82,NNW,342,2.0,4.0,53,0.00,,,0.00,Wunderground v.1.15,2013-02-17 02:08:00,
2013-02-16 21:13:00,33.2,17.9,29.82,West,278,3.0,8.0,53,0.00,,,0.00,Wunderground v.1.15,2013-02-17 02:13:00,
2013-02-16 21:18:00,33.1,17.8,29.82,North,353,3.0,8.0,53,0.00,,,0.00,Wunderground v.1.15,2013-02-17 02:18:00,
2013-02-16 21:24:00,33.1,17.8,29.82,NW,315,4.0,8.0,53,0.00,,,0.00,Wunderground v.1.15,2013-02-17 02:24:00,
2013-02-16 21:29:00,33.1,17.8,29.82,NW,322,3.0,8.0,53,0.00,,,0.00,Wunderground v.1.15,2013-02-17 02:29:00,
2013-02-16 21:34:00,32.9,17.6,29.82,NW,318,3.0,7.0,53,0.00,,,0.00,Wunderground v.1.15,2013-02-17 02:34:00,
2013-02-16 21:39:00,32.9,17.2,29.82,NW,311,4.0,7.0,52,0.00,,,0.00,Wunderground v.1.15,2013-02-17 02:39:00,
2013-02-16 21:45:00,32.9,17.2,29.82,NNW,337,4.0,4.0,52,0.00,,,0.00,Wunderground v.1.15,2013-02-17 02:45:00,
2013-02-16 21:50:00,32.8,17.1,29.82,NNW,347,2.0,4.0,52,0.00,,,0.00,Wunderground v.1.15,2013-02-17 02:50:00,
2013-02-16 21:55:00,32.8,17.1,29.82,North,353,2.0,4.0,52,0.00,,,0.00,Wunderground v.1.15,2013-02-17 02:55:00,
2013-02-16 22:00:00,32.7,16.5,29.82,NW,306,2.0,2.0,51,0.00,,,0.00,Wunderground v.1.15,2013-02-17 03:00:00,
2013-02-16 22:06:00,32.7,16.5,29.82,NW,325,2.0,4.0,51,0.00,,,0.00,Wunderground v.1.15,2013-02-17 03:06:00,
2013-02-16 22:11:00,32.5,15.9,29.82,NNW,344,3.0,9.0,50,0.00,,,0.00,Wunderground v.1.15,2013-02-17 03:11:00,
2013-02-16 22:16:00,32.5,15.9,29.82,NNW,333,3.0,9.0,50,0.00,,,0.00,Wunderground v.1.15,2013-02-17 03:16:00,
2013-02-16 22:22:00,32.5,15.4,29.82,North,357,5.0,6.0,49,0.00,,,0.00,Wunderground v.1.15,2013-02-17 03:22:00,
2013-02-16 22:27:00,32.4,15.8,29.82,NW,308,5.0,6.0,50,0.00,,,0.00,Wunderground v.1.15,2013-02-17 03:27:00,
2013-02-16 22:32:00,32.4,16.3,29.82,West,264,4.0,4.0,51,0.00,,,0.00,Wunderground v.1.15,2013-02-17 03:32:00,
2013-02-16 22:37:00,32.4,16.3,29.82,WNW,296,3.0,4.0,51,0.00,,,0.00,Wunderground v.1.15,2013-02-17 03:37:00,
2013-02-16 22:43:00,32.2,16.1,29.82,North,0,3.0,4.0,51,0.00,,,0.00,Wunderground v.1.15,2013-02-17 03:43:00,
2013-02-16 22:48:00,32.2,16.5,29.82,North,0,3.0,6.0,52,0.00,,,0.00,Wunderground v.1.15,2013-02-17 03:48:00,
2013-02-16 22:53:00,32.1,16.4,29.82,NNW,337,4.0,8.0,52,0.00,,,0.00,Wunderground v.1.15,2013-02-17 03:53:00,
2013-02-16 22:58:00,32.1,16.4,29.82,NW,312,4.0,8.0,52,0.00,,,0.00,Wunderground v.1.15,2013-02-17 03:58:00,
2013-02-16 23:04:00,31.9,16.2,29.81,NNW,329,5.0,7.0,52,0.00,,,0.00,Wunderground v.1.15,2013-02-17 04:04:00,
2013-02-16 23:09:00,31.8,16.2,29.81,NW,323,5.0,7.0,52,0.00,,,0.00,Wunderground v.1.15,2013-02-17 04:09:00,
2013-02-16 23:15:00,31.6,16.4,29.81,North,350,4.0,8.0,53,0.00,,,0.00,Wunderground v.1.15,2013-02-17 04:15:00,
2013-02-16 23:20:00,31.5,16.3,29.81,NW,325,3.0,6.0,53,0.00,,,0.00,Wunderground v.1.15,2013-02-17 04:20:00,
2013-02-16 23:26:00,31.3,16.1,29.81,WNW,299,3.0,9.0,53,0.00,,,0.00,Wunderground v.1.15,2013-02-17 04:26:00,
2013-02-16 23:32:00,31.2,16.5,29.80,North,353,4.0,8.0,54,0.00,,,0.00,Wunderground v.1.15,2013-02-17 04:32:00,
2013-02-16 23:37:00,31.0,16.3,29.80,SSW,212,5.0,9.0,54,0.00,,,0.00,Wunderground v.1.15,2013-02-17 04:37:00,
2013-02-16 23:42:00,30.9,15.8,29.80,WNW,298,5.0,9.0,53,0.00,,,0.00,Wunderground v.1.15,2013-02-17 04:42:00,
2013-02-16 23:47:00,30.9,16.2,29.80,North,0,3.0,9.0,54,0.00,,,0.00,Wunderground v.1.15,2013-02-17 04:47:00,
2013-02-16 23:53:00,30.6,15.9,29.80,West,281,3.0,6.0,54,0.00,,,0.00,Wunderground v.1.15,2013-02-17 04:53:00,
2013-02-16 23:58:00,30.6,16.3,29.80,NW,315,4.0,6.0,55,0.00,,,0.00,Wunderground v.1.15,2013-02-17 04:58:00,